createdAt,value
2022-11-02T00:00:35.129Z,10.38
2022-11-02T00:03:22.818Z,8.55
2022-11-02T00:05:50.013Z,9.60
2022-11-02T00:08:17.274Z,9.90
2022-11-02T00:10:44.684Z,5.70
2022-11-02T00:13:12.523Z,6.07
2022-11-02T00:15:39.642Z,7.28
2022-11-02T00:18:11.612Z,6.18
2022-11-02T00:20:40.266Z,6.68
2022-11-02T00:23:10.873Z,8.20
2022-11-02T00:25:44.263Z,7.35
2022-11-02T00:28:12.676Z,6.85
2022-11-02T00:30:39.820Z,6.95
2022-11-02T00:33:07.301Z,8.20
2022-11-02T00:35:36.523Z,7.65
2022-11-02T00:38:04.398Z,6.35
2022-11-02T00:40:32.860Z,20.73
2022-11-02T00:43:00.118Z,7.18
2022-11-02T00:45:27.099Z,15.02
2022-11-02T00:47:54.695Z,7.47
2022-11-02T00:50:21.728Z,8.65
2022-11-02T00:52:49.053Z,9.40
2022-11-02T00:55:18.143Z,7.43
2022-11-02T00:57:45.558Z,9.02
2022-11-02T01:00:12.966Z,6.65
2022-11-02T01:02:41.259Z,7.28
2022-11-02T01:05:10.237Z,7.32
2022-11-02T01:07:37.802Z,6.57
2022-11-02T01:10:07.361Z,6.25
2022-11-02T01:12:37.702Z,7.72
2022-11-02T01:15:07.130Z,7.35
2022-11-02T01:17:34.673Z,8.10
2022-11-02T01:20:02.094Z,7.13
2022-11-02T01:22:29.289Z,6.65
2022-11-02T01:24:56.259Z,7.82
2022-11-02T01:27:23.886Z,6.72
2022-11-02T01:29:57.216Z,7.75
2022-11-02T01:32:40.634Z,6.82
2022-11-02T01:35:08.294Z,6.50
2022-11-02T01:37:35.513Z,7.05
2022-11-02T01:40:02.797Z,6.50
2022-11-02T01:42:29.966Z,7.50
2022-11-02T01:44:57.386Z,6.22
2022-11-02T01:47:40.645Z,6.25
2022-11-02T01:50:22.324Z,6.80
2022-11-02T01:52:49.410Z,7.72
2022-11-02T01:55:29.508Z,8.20
2022-11-02T01:58:10.281Z,7.35
2022-11-02T02:00:38.879Z,7.18
2022-11-02T02:03:09.456Z,7.85
2022-11-02T02:05:49.557Z,7.43
2022-11-02T02:08:20.164Z,7.65
2022-11-02T02:10:47.462Z,7.68
2022-11-02T02:13:15.961Z,7.82
2022-11-02T02:16:15.811Z,8.07
2022-11-02T02:18:50.495Z,7.97
2022-11-02T02:21:51.346Z,7.45
2022-11-02T02:25:11.505Z,6.90
2022-11-02T02:27:57.228Z,8.95
2022-11-02T02:30:24.615Z,7.75
2022-11-02T02:33:05.940Z,7.05
2022-11-02T02:35:59.391Z,8.13
2022-11-02T02:38:30.824Z,7.05
2022-11-02T02:41:09.354Z,7.45
2022-11-02T02:44:00.726Z,7.75
2022-11-02T02:46:40.546Z,7.68
2022-11-02T02:49:13.500Z,8.20
2022-11-02T02:51:42.045Z,8.30
2022-11-02T02:54:15.188Z,8.20
2022-11-02T02:56:50.022Z,8.77
2022-11-02T02:59:34.144Z,7.82
2022-11-02T03:02:01.303Z,7.63
2022-11-02T03:04:29.958Z,8.63
2022-11-02T03:07:01.496Z,9.20
2022-11-02T03:09:42.063Z,7.32
2022-11-02T03:12:16.762Z,8.40
2022-11-02T03:14:58.441Z,7.93
2022-11-02T03:17:48.577Z,7.70
2022-11-02T03:20:48.562Z,7.72
2022-11-02T03:23:33.660Z,8.43
2022-11-02T03:26:04.464Z,8.35
2022-11-02T03:28:54.873Z,7.50
2022-11-02T03:31:28.510Z,7.53
2022-11-02T03:34:15.786Z,8.70
2022-11-02T03:39:49.769Z,7.88
2022-11-02T03:44:49.741Z,8.50
2022-11-02T03:47:20.877Z,9.05
2022-11-02T03:49:50.534Z,11.05
2022-11-02T03:52:23.792Z,13.20
2022-11-02T03:55:11.560Z,14.73
2022-11-02T03:57:46.329Z,15.05
2022-11-02T04:00:16.322Z,14.60
2022-11-02T04:02:48.567Z,15.20
2022-11-02T04:05:16.262Z,14.80
2022-11-02T04:08:07.513Z,14.95
2022-11-02T04:10:35.202Z,13.40
2022-11-02T04:13:21.070Z,12.52
2022-11-02T04:15:48.367Z,12.60
2022-11-02T04:18:34.495Z,13.80
2022-11-02T04:21:02.522Z,13.07
2022-11-02T04:23:48.631Z,16.13
2022-11-02T04:26:15.672Z,14.98
2022-11-02T04:28:42.964Z,14.35
2022-11-02T04:31:13.097Z,13.77
2022-11-02T04:33:41.497Z,13.60
2022-11-02T04:36:08.780Z,13.27
2022-11-02T04:38:42.095Z,12.23
2022-11-02T04:41:32.420Z,13.75
2022-11-02T04:44:00.527Z,15.30
2022-11-02T04:46:29.800Z,15.25
2022-11-02T04:48:57.380Z,14.00
2022-11-02T04:51:26.621Z,16.08
2022-11-02T04:53:55.354Z,14.68
2022-11-02T04:56:22.838Z,15.35
2022-11-02T04:59:01.816Z,14.02
2022-11-02T05:01:35.703Z,14.88
2022-11-02T05:04:04.720Z,14.48
2022-11-02T05:06:31.663Z,13.50
2022-11-02T05:08:58.900Z,12.90
2022-11-02T05:11:25.870Z,12.35
2022-11-02T05:16:46.314Z,12.88
2022-11-02T05:22:20.079Z,13.23
2022-11-02T05:24:47.292Z,16.17
2022-11-02T05:27:14.532Z,15.18
2022-11-02T05:29:42.063Z,15.77
2022-11-02T05:32:09.328Z,15.70
2022-11-02T05:34:38.198Z,16.42
2022-11-02T05:37:05.760Z,17.02
2022-11-02T05:39:33.068Z,17.55
2022-11-02T05:42:00.119Z,17.40
2022-11-02T05:44:27.369Z,14.95
2022-11-02T05:46:54.335Z,14.07
2022-11-02T05:49:21.926Z,18.23
2022-11-02T05:51:49.513Z,17.08
2022-11-02T05:54:18.105Z,16.50
2022-11-02T05:56:45.824Z,18.52
2022-11-02T06:04:44.669Z,16.90
2022-11-02T06:07:11.955Z,18.70
2022-11-02T06:09:39.382Z,20.98
2022-11-02T06:14:51.893Z,24.75
2022-11-02T06:17:20.009Z,24.63
2022-11-02T06:19:48.202Z,25.17
2022-11-02T06:22:15.256Z,25.90
2022-11-02T06:24:42.513Z,24.73
2022-11-02T06:27:09.541Z,25.23
2022-11-02T06:29:36.799Z,18.40
2022-11-02T06:32:03.912Z,18.60
2022-11-02T06:34:31.185Z,18.00
2022-11-02T06:40:25.631Z,14.98
2022-11-02T06:43:15.281Z,13.88
2022-11-02T06:45:43.815Z,12.45
2022-11-02T06:48:13.735Z,14.70
2022-11-02T06:50:43.728Z,13.80
2022-11-02T06:55:55.611Z,12.25
2022-11-02T06:58:24.216Z,11.90
2022-11-02T07:00:56.561Z,13.13
2022-11-02T07:03:47.670Z,11.85
2022-11-02T07:06:25.631Z,13.15
2022-11-02T07:08:53.811Z,12.13
2022-11-02T07:13:51.895Z,10.75
2022-11-02T07:16:21.563Z,11.88
2022-11-02T07:21:33.401Z,11.85
2022-11-02T07:24:00.829Z,10.30
2022-11-02T07:26:34.448Z,12.38
2022-11-02T07:29:01.431Z,10.90
2022-11-02T07:31:28.712Z,11.82
2022-11-02T07:33:55.744Z,11.98
2022-11-02T07:36:23.197Z,11.55
2022-11-02T07:38:50.130Z,11.13
2022-11-02T07:41:17.344Z,13.00
2022-11-02T07:43:44.465Z,12.38
2022-11-02T07:46:12.652Z,12.23
2022-11-02T07:48:39.878Z,12.20
2022-11-02T07:53:55.593Z,13.05
2022-11-02T07:56:22.907Z,11.32
2022-11-02T07:58:49.842Z,11.90
2022-11-02T08:01:17.070Z,13.52
2022-11-02T08:03:44.146Z,13.43
2022-11-02T08:06:11.360Z,12.27
2022-11-02T08:08:38.296Z,12.23
2022-11-02T08:11:09.313Z,13.65
2022-11-02T08:13:42.196Z,13.02
2022-11-02T08:16:09.719Z,13.00
2022-11-02T08:21:40.795Z,12.90
2022-11-02T08:24:08.214Z,11.73
2022-11-02T08:26:35.221Z,12.88
2022-11-02T08:29:03.268Z,12.50
2022-11-02T08:31:30.248Z,12.18
2022-11-02T08:33:58.855Z,13.02
2022-11-02T08:36:25.871Z,8.95
2022-11-02T08:38:53.182Z,10.23
2022-11-02T08:41:21.533Z,12.65
2022-11-02T08:43:49.507Z,12.02
2022-11-02T08:46:47.717Z,12.20
2022-11-02T08:49:18.662Z,9.55
2022-11-02T08:51:45.975Z,9.30
2022-11-02T08:54:13.950Z,11.00
2022-11-02T08:56:41.131Z,12.55
2022-11-02T08:59:08.943Z,11.88
2022-11-02T09:01:35.957Z,11.00
2022-11-02T09:04:06.004Z,10.20
2022-11-02T09:06:32.999Z,12.25
2022-11-02T09:09:00.426Z,11.98
2022-11-02T09:11:27.574Z,10.77
2022-11-02T09:13:57.116Z,15.27
2022-11-02T09:16:24.393Z,12.45
2022-11-02T09:18:52.547Z,12.20
2022-11-02T09:21:19.487Z,11.38
2022-11-02T09:23:48.641Z,10.13
2022-11-02T09:26:16.085Z,10.25
2022-11-02T09:28:43.562Z,11.90
2022-11-02T09:31:11.772Z,11.02
2022-11-02T09:33:39.594Z,11.88
2022-11-02T09:36:07.298Z,10.60
2022-11-02T09:38:34.692Z,10.75
2022-11-02T09:41:22.000Z,10.40
2022-11-02T09:43:58.216Z,10.75
2022-11-02T09:46:32.705Z,12.32
2022-11-02T09:49:00.260Z,10.32
2022-11-02T09:51:35.239Z,9.18
2022-11-02T09:54:17.153Z,10.25
2022-11-02T09:56:46.362Z,10.85
2022-11-02T09:59:24.634Z,9.45
2022-11-02T10:02:05.779Z,10.50
2022-11-02T10:05:10.741Z,10.00
2022-11-02T10:07:43.686Z,10.27
2022-11-02T10:10:10.979Z,10.57
2022-11-02T10:12:58.084Z,9.73
2022-11-02T10:15:37.210Z,10.43
2022-11-02T10:18:05.708Z,10.05
2022-11-02T10:20:42.582Z,9.73
2022-11-02T10:23:18.587Z,10.55
2022-11-02T10:25:48.489Z,9.60
2022-11-02T10:28:27.421Z,10.32
2022-11-02T10:30:55.680Z,9.43
2022-11-02T10:33:26.984Z,9.75
2022-11-02T10:36:28.186Z,10.10
2022-11-02T10:41:39.147Z,8.45
2022-11-02T10:44:22.303Z,9.73
2022-11-02T10:47:05.615Z,9.93
2022-11-02T10:50:12.562Z,12.30
2022-11-02T10:52:43.646Z,10.00
2022-11-02T10:55:41.433Z,9.45
2022-11-02T10:58:15.957Z,8.85
2022-11-02T11:00:43.371Z,8.18
2022-11-02T11:03:13.409Z,10.55
2022-11-02T11:06:02.824Z,9.32
2022-11-02T11:08:43.022Z,7.28
2022-11-02T11:11:21.518Z,9.43
2022-11-02T11:16:52.410Z,9.75
2022-11-02T11:22:22.553Z,9.13
2022-11-02T11:24:49.967Z,8.52
2022-11-02T11:27:23.997Z,8.20
2022-11-02T11:29:59.100Z,9.50
2022-11-02T11:32:30.562Z,8.60
2022-11-02T11:35:14.868Z,9.30
2022-11-02T11:37:54.813Z,8.13
2022-11-02T11:40:23.409Z,9.73
2022-11-02T11:42:56.363Z,7.78
2022-11-02T11:45:27.962Z,9.30
2022-11-02T11:48:32.567Z,8.75
2022-11-02T11:51:02.609Z,8.45
2022-11-02T11:53:30.008Z,9.68
2022-11-02T11:55:59.950Z,9.65
2022-11-02T11:58:30.088Z,10.73
2022-11-02T12:01:13.023Z,9.25
2022-11-02T12:03:53.912Z,9.07
2022-11-02T12:06:59.814Z,10.82
2022-11-02T12:09:45.781Z,9.75
2022-11-02T12:12:34.575Z,9.90
2022-11-02T12:15:23.110Z,9.90
2022-11-02T12:18:06.823Z,10.43
2022-11-02T12:21:22.292Z,9.95
2022-11-02T12:24:18.973Z,9.43
2022-11-02T12:27:41.852Z,10.70
2022-11-02T12:30:11.304Z,9.20
2022-11-02T12:32:53.539Z,8.57
2022-11-02T12:35:55.991Z,9.82
2022-11-02T12:39:04.493Z,9.57
2022-11-02T12:41:51.272Z,8.45
2022-11-02T12:47:59.774Z,10.60
2022-11-02T13:04:54.756Z,11.63
2022-11-02T13:08:27.250Z,10.13
2022-11-02T13:11:46.183Z,13.45
2022-11-02T13:15:16.270Z,11.23
2022-11-02T13:18:53.077Z,11.23
2022-11-02T13:22:15.879Z,11.77
2022-11-02T13:25:03.660Z,10.48
2022-11-02T13:28:20.307Z,14.68
2022-11-02T13:31:00.737Z,11.82
2022-11-02T13:34:12.247Z,12.52
2022-11-02T13:36:46.795Z,10.57
2022-11-02T13:39:30.309Z,11.25
2022-11-02T13:42:33.760Z,12.68
2022-11-02T13:45:30.797Z,11.30
2022-11-02T13:48:23.073Z,11.93
2022-11-02T13:50:55.646Z,11.48
2022-11-02T13:53:48.460Z,12.98
2022-11-02T13:56:24.447Z,10.85
2022-11-02T13:59:20.931Z,11.68
2022-11-02T14:01:53.846Z,12.82
2022-11-02T14:04:22.666Z,11.15
2022-11-02T14:06:53.589Z,12.50
2022-11-02T14:09:42.456Z,12.98
2022-11-02T14:12:21.983Z,13.02
2022-11-02T14:15:15.532Z,12.82
2022-11-02T14:17:55.311Z,11.88
2022-11-02T14:20:47.681Z,13.07
2022-11-02T14:23:14.952Z,9.93
2022-11-02T14:28:44.456Z,9.15
2022-11-02T14:31:18.294Z,14.15
2022-11-02T14:34:12.027Z,10.57
2022-11-02T14:36:47.513Z,13.68
2022-11-02T14:39:35.211Z,11.32
2022-11-02T14:42:36.870Z,14.38
2022-11-02T14:45:48.882Z,12.88
2022-11-02T14:48:16.969Z,14.32
2022-11-02T14:51:06.955Z,13.43
2022-11-02T14:56:03.720Z,11.50
2022-11-02T14:58:48.497Z,13.90
2022-11-02T15:01:16.986Z,12.77
2022-11-02T15:03:45.234Z,12.80
2022-11-02T15:06:12.843Z,13.73
2022-11-02T15:09:08.104Z,13.18
2022-11-02T15:11:57.031Z,11.55
2022-11-02T15:14:38.384Z,14.50
2022-11-02T15:17:22.207Z,14.23
2022-11-02T15:20:16.535Z,14.18
2022-11-02T15:23:31.594Z,14.50
2022-11-02T15:25:59.551Z,15.32
2022-11-02T15:28:33.902Z,14.73
2022-11-02T15:31:23.155Z,16.00
2022-11-02T15:33:59.071Z,14.60
2022-11-02T15:36:36.724Z,14.75
2022-11-02T15:39:08.823Z,15.95
2022-11-02T15:41:42.035Z,14.40
2022-11-02T15:44:33.161Z,12.30
2022-11-02T15:47:14.699Z,15.52
2022-11-02T15:50:16.787Z,15.38
2022-11-02T15:53:22.438Z,14.80
2022-11-02T15:56:09.920Z,14.93
2022-11-02T15:58:45.900Z,14.77
2022-11-02T16:01:26.935Z,14.77
2022-11-02T16:06:44.456Z,14.85
2022-11-02T16:12:17.118Z,14.57
2022-11-02T16:14:44.908Z,15.90
2022-11-02T16:17:30.495Z,16.10
2022-11-02T16:23:29.334Z,16.85
2022-11-02T16:26:00.655Z,16.13
2022-11-02T16:28:30.414Z,16.83
2022-11-02T16:30:58.374Z,15.63
2022-11-02T16:33:27.040Z,14.27
2022-11-02T16:35:55.157Z,14.05
2022-11-02T16:38:23.306Z,16.00
2022-11-02T16:43:37.863Z,17.40
2022-11-02T16:46:07.190Z,17.23
2022-11-02T16:48:34.330Z,17.92
2022-11-02T16:51:26.933Z,16.83
2022-11-02T16:53:55.347Z,11.73
2022-11-02T16:56:35.822Z,14.88
2022-11-02T16:59:06.904Z,16.60
2022-11-02T17:02:02.269Z,16.85
2022-11-02T17:04:32.668Z,17.20
2022-11-02T17:07:28.464Z,16.65
2022-11-02T17:09:57.662Z,19.60
2022-11-02T17:12:37.263Z,16.73
2022-11-02T17:15:16.361Z,16.55
2022-11-02T17:17:44.112Z,17.02
2022-11-02T17:20:11.743Z,18.60
2022-11-02T17:22:50.871Z,15.55
2022-11-02T17:25:26.915Z,16.63
2022-11-02T17:27:56.601Z,17.10
2022-11-02T17:30:43.068Z,18.13
2022-11-02T17:33:25.153Z,18.25
2022-11-02T17:36:00.076Z,18.55
2022-11-02T17:38:38.174Z,15.32
2022-11-02T17:41:26.210Z,16.98
2022-11-02T17:43:58.672Z,14.63
2022-11-02T17:46:25.737Z,15.43
2022-11-02T17:48:55.710Z,17.23
2022-11-02T17:51:24.736Z,14.43
2022-11-02T17:53:52.868Z,16.85
2022-11-02T17:59:03.610Z,17.13
2022-11-02T18:01:30.919Z,17.83
2022-11-02T18:03:58.534Z,15.80
2022-11-02T18:06:25.665Z,18.17
2022-11-02T18:09:11.501Z,13.57
2022-11-02T18:11:38.547Z,16.15
2022-11-02T18:14:06.053Z,16.90
2022-11-02T18:16:33.073Z,15.35
2022-11-02T18:19:00.646Z,17.33
2022-11-02T18:21:27.955Z,13.20
2022-11-02T18:23:55.806Z,12.30
2022-11-02T18:26:24.709Z,15.10
2022-11-02T18:28:52.058Z,16.50
2022-11-02T18:31:19.306Z,17.85
2022-11-02T18:33:47.661Z,15.63
2022-11-02T18:36:14.826Z,16.70
2022-11-02T18:38:44.607Z,16.00
2022-11-02T18:41:30.738Z,12.35
2022-11-02T18:44:04.938Z,16.75
2022-11-02T18:46:34.346Z,15.10
2022-11-02T18:49:16.191Z,13.55
2022-11-02T18:55:02.769Z,13.20
2022-11-02T18:57:33.271Z,14.23
2022-11-02T19:00:02.728Z,15.88
2022-11-02T19:02:30.805Z,13.65
2022-11-02T19:04:57.951Z,13.18
2022-11-02T19:07:43.971Z,11.75
2022-11-02T19:10:11.069Z,13.98
2022-11-02T19:12:38.717Z,15.45
2022-11-02T19:15:06.498Z,15.05
2022-11-02T19:17:48.430Z,12.10
2022-11-02T19:20:15.416Z,17.20
2022-11-02T19:25:24.798Z,16.10
2022-11-02T19:27:52.151Z,17.77
2022-11-02T19:30:23.708Z,16.60
2022-11-02T19:32:51.953Z,15.73
2022-11-02T19:35:19.085Z,17.77
2022-11-02T19:37:47.765Z,11.38
2022-11-02T19:40:15.271Z,14.55
2022-11-02T19:42:44.106Z,13.80
2022-11-02T19:45:17.489Z,15.52
2022-11-02T19:47:48.612Z,18.10
2022-11-02T19:50:20.929Z,17.80
2022-11-02T19:56:29.581Z,16.58
2022-11-02T19:59:06.405Z,14.88
2022-11-02T20:01:40.021Z,17.52
2022-11-02T20:04:09.039Z,16.45
2022-11-02T20:06:48.064Z,15.85
2022-11-02T20:09:20.502Z,17.40
2022-11-02T20:11:48.373Z,16.15
2022-11-02T20:14:17.733Z,17.15
2022-11-02T20:19:21.361Z,14.77
2022-11-02T20:21:48.725Z,15.63
2022-11-02T20:24:16.598Z,17.23
2022-11-02T20:26:43.760Z,15.50
2022-11-02T20:29:15.238Z,16.35
2022-11-02T20:31:45.724Z,15.98
2022-11-02T20:34:13.754Z,17.23
2022-11-02T20:36:41.450Z,17.50
2022-11-02T20:39:11.029Z,17.42
2022-11-02T20:41:38.054Z,19.35
2022-11-02T20:44:05.601Z,17.10
2022-11-02T20:46:39.118Z,19.15
2022-11-02T20:49:21.088Z,17.40
2022-11-02T20:51:53.136Z,18.50
2022-11-02T20:54:25.127Z,17.45
2022-11-02T20:56:52.127Z,17.85
2022-11-02T20:59:19.715Z,17.75
2022-11-02T21:01:47.446Z,14.32
2022-11-02T21:04:32.199Z,19.23
2022-11-02T21:07:00.767Z,16.40
2022-11-02T21:09:27.913Z,17.70
2022-11-02T21:12:13.815Z,17.25
2022-11-02T21:14:40.833Z,19.15
2022-11-02T21:17:09.988Z,18.40
2022-11-02T21:19:37.540Z,16.88
2022-11-02T21:22:07.591Z,17.45
2022-11-02T21:24:34.599Z,16.70
2022-11-02T21:27:02.359Z,16.33
2022-11-02T21:29:32.358Z,17.63
2022-11-02T21:32:03.496Z,17.17
2022-11-02T21:34:33.149Z,17.25
2022-11-02T21:37:06.615Z,17.83
2022-11-02T21:39:36.165Z,19.23
2022-11-02T21:42:04.118Z,18.50
2022-11-02T21:44:33.090Z,19.02
2022-11-02T21:47:01.895Z,19.27
2022-11-02T21:49:31.286Z,18.48
2022-11-02T21:51:58.666Z,19.42
2022-11-02T21:54:25.692Z,16.52
2022-11-02T21:56:53.045Z,19.50
2022-11-02T21:59:20.144Z,18.13
2022-11-02T22:01:49.517Z,17.73
2022-11-02T22:04:31.686Z,16.67
2022-11-02T22:07:00.600Z,17.67
2022-11-02T22:09:30.661Z,18.63
2022-11-02T22:12:21.491Z,20.05
2022-11-02T22:14:48.598Z,16.75
2022-11-02T22:17:22.066Z,17.23
2022-11-02T22:20:04.314Z,15.52
2022-11-02T22:22:31.666Z,16.00
2022-11-02T22:24:58.979Z,15.07
2022-11-02T22:27:29.130Z,17.75
2022-11-02T22:29:56.231Z,17.58
2022-11-02T22:32:23.762Z,17.05
2022-11-02T22:34:51.134Z,17.25
2022-11-02T22:40:06.932Z,17.20
2022-11-02T22:42:38.188Z,16.65
2022-11-02T22:45:09.193Z,16.05
2022-11-02T22:47:36.717Z,16.48
2022-11-02T22:50:05.334Z,17.30
2022-11-02T22:52:33.309Z,16.58
2022-11-02T22:55:00.416Z,16.63
2022-11-02T22:57:29.269Z,15.70
2022-11-02T22:59:56.845Z,17.60
2022-11-02T23:02:24.223Z,17.23
2022-11-02T23:04:51.327Z,17.02
2022-11-02T23:07:18.613Z,16.35
2022-11-02T23:09:46.090Z,15.63
2022-11-02T23:12:14.460Z,17.25
2022-11-02T23:14:41.548Z,16.35
2022-11-02T23:17:08.662Z,17.92
2022-11-02T23:19:38.667Z,16.67
2022-11-02T23:22:26.583Z,17.23
2022-11-02T23:28:06.028Z,15.55
2022-11-02T23:30:57.570Z,15.52
2022-11-02T23:33:29.516Z,14.10
2022-11-02T23:36:13.122Z,16.30
2022-11-02T23:39:03.501Z,16.95
2022-11-02T23:41:32.899Z,16.98
2022-11-02T23:44:12.636Z,16.77
2022-11-02T23:46:44.347Z,16.95
2022-11-02T23:49:12.444Z,17.52
2022-11-02T23:52:01.368Z,16.33
2022-11-02T23:54:47.115Z,17.15
2022-11-02T23:57:14.574Z,15.98
2022-11-02T23:59:41.531Z,16.77
